Accueil
METAR-TAF:

METAR-TAF

Aéroports :

Meiringen, Suisse

latitude: 46-44-25N, longitude: 8-06-36E, altitude: 577 m

Observation

Le bulletin a été fait il y a 28 minutes, à 10:20 UTC
Vent 13 kt de ouest, variant entre ouest/sud-ouest et nord-ouest
Température 10°C
Humidité 50%
Pression 1013 hPa
Visibilité 10 km ou plus
Quelques nuages à une hauteur de 6000 ft
Nuages fragmentés à une hauteur de 7600 ft

METAR: LSMM 161020Z AUTO 28013KT 250V320 9999NDV FEW060 BKN076 10/M00 Q1013 RMK

Heure: 12:48 (10:48 UTC)


TAF: absent

Observations et prévisions météorologiques de plus de 4000 aéroports (messages METAR et TAF).

Les stations disponibles sont représentées par des disques jaunes et rouges sur la carte.

Passer la souris dessus pour voir le nom de la station.

Cliquer dessus pour voir les observations et prévisions météorologiques.

Pour changer de carte: cliquez sur les boutons verts avec une croix noire pour zoomer, sur le bouton vert avec un tiret pour effectuer un zoom arrière, ou sur les flèches vertes pour les cartes adjacentes.


METAR-TAF: